Time;durP1;ratioP1;P1;durP2;ratioP2;P2;SDS_P1;SDS_P2;PMS_P1;PMS_P2;Temp;Humidity;BMP_temperature;BMP_pressure;BME280_temperature;BME280_humidity;BME280_pressure;Samples;Min_cycle;Max_cycle;Signal;HPM_P1;HPM_P2
2022/09/21 00:01:28;;;;;;;2.97;0.40;;;15.30;86.20;;;;;;5052163;28;20032;-74
2022/09/21 00:03:56;;;;;;;3.50;0.55;;;15.30;86.10;;;;;;5052024;28;20044;-74
2022/09/21 00:06:25;;;;;;;3.95;0.30;;;15.30;86.20;;;;;;5052640;28;20033;-74
2022/09/21 00:08:51;;;;;;;3.83;0.40;;;15.30;86.40;;;;;;5053755;28;20024;-74
2022/09/21 00:11:19;;;;;;;5.45;0.25;;;15.20;86.50;;;;;;5056152;28;20028;-74
2022/09/21 00:13:45;;;;;;;2.90;0.50;;;15.20;86.50;;;;;;5056071;28;20017;-74
2022/09/21 00:16:13;;;;;;;3.17;0.50;;;15.10;86.60;;;;;;5055740;28;20469;-74
2022/09/21 00:18:38;;;;;;;5.57;0.50;;;15.10;86.70;;;;;;5056004;28;20456;-74
2022/09/21 00:21:13;;;;;;;6.00;0.30;;;14.90;87.20;;;;;;5055890;28;20048;-74
2022/09/21 00:23:39;;;;;;;4.03;0.52;;;14.70;88.00;;;;;;5055518;28;20499;-74
2022/09/21 00:26:09;;;;;;;4.82;0.40;;;14.60;88.40;;;;;;5055789;28;20041;-74
2022/09/21 00:28:36;;;;;;;6.15;0.50;;;14.50;88.70;;;;;;5055572;28;20045;-74
2022/09/21 00:34:23;;;;;;;6.65;0.45;;;14.50;88.80;;;;;;5055920;28;20052;-73
2022/09/21 00:36:49;;;;;;;4.88;0.40;;;14.40;88.80;;;;;;5055681;28;20033;-74
2022/09/21 00:39:15;;;;;;;3.25;0.47;;;14.40;89.10;;;;;;5055856;28;20052;-74
2022/09/21 00:41:40;;;;;;;2.47;0.35;;;14.40;89.30;;;;;;5055472;28;20532;-74
2022/09/21 00:44:28;;;;;;;3.25;0.30;;;14.40;89.00;;;;;;5055728;28;20033;-73
2022/09/21 00:46:58;;;;;;;2.78;0.22;;;14.60;88.90;;;;;;5055396;28;20472;-74
2022/09/21 00:49:25;;;;;;;3.22;0.28;;;14.60;88.50;;;;;;5055734;28;20435;-74
2022/09/21 00:51:52;;;;;;;2.50;0.43;;;14.70;88.30;;;;;;5055187;28;20461;-74
2022/09/21 00:54:29;;;;;;;1.85;0.28;;;14.80;88.20;;;;;;5055414;28;20033;-74
2022/09/21 00:56:56;;;;;;;3.65;0.35;;;14.90;88.10;;;;;;5055604;28;20033;-74
2022/09/21 00:59:22;;;;;;;3.42;0.30;;;14.90;87.90;;;;;;5055434;28;20037;-73
2022/09/21 01:01:49;;;;;;;3.95;0.45;;;14.90;87.70;;;;;;5055428;28;20071;-73
2022/09/21 01:04:17;;;;;;;2.17;0.20;;;14.90;87.60;;;;;;5055306;28;20036;-73
2022/09/21 01:06:43;;;;;;;3.35;0.63;;;15.00;87.60;;;;;;5055506;28;20423;-73
2022/09/21 01:09:09;;;;;;;3.17;0.30;;;14.90;87.50;;;;;;5055024;28;20542;-74
2022/09/21 01:11:57;;;;;;;2.42;0.43;;;14.90;88.10;;;;;;5055199;28;20029;-73
2022/09/21 01:14:44;;;;;;;2.60;0.30;;;14.90;87.50;;;;;;5055327;28;20065;-73
2022/09/21 01:17:21;;;;;;;2.38;0.35;;;14.90;87.40;;;;;;5054983;28;20087;-73
2022/09/21 01:20:01;;;;;;;4.80;0.40;;;14.90;87.30;;;;;;5054278;28;20496;-73
2022/09/21 01:23:04;;;;;;;3.88;0.38;;;14.90;87.30;;;;;;5054772;28;20044;-73
2022/09/21 01:26:03;;;;;;;3.38;0.32;;;14.90;87.30;;;;;;5054582;28;20055;-74
2022/09/21 01:28:56;;;;;;;3.33;0.35;;;14.90;87.20;;;;;;5054703;28;20499;-74
2022/09/21 01:31:51;;;;;;;;;;;14.90;87.10;;;;;;5055229;28;20033;-73
2022/09/21 01:34:38;;;;;;;1.95;0.30;;;14.90;87.10;;;;;;5045127;28;19958;-73
2022/09/21 01:37:10;;;;;;;3.30;0.43;;;14.90;87.00;;;;;;5054481;28;20451;-74
2022/09/21 01:39:39;;;;;;;2.25;0.28;;;14.90;87.00;;;;;;5054532;28;20021;-74
2022/09/21 01:42:06;;;;;;;2.65;0.43;;;14.80;87.30;;;;;;5054343;28;20112;-74
2022/09/21 01:44:36;;;;;;;3.75;0.38;;;14.70;87.50;;;;;;5054558;28;20045;-73
2022/09/21 01:47:06;;;;;;;2.40;0.32;;;14.70;87.70;;;;;;5054676;28;20104;-74
2022/09/21 01:49:37;;;;;;;4.68;0.77;;;14.60;87.80;;;;;;5054165;28;20029;-74
2022/09/21 01:52:14;;;;;;;4.28;0.30;;;14.60;87.90;;;;;;5054649;28;20029;-74
2022/09/21 01:54:48;;;;;;;3.60;0.47;;;14.60;87.90;;;;;;5054149;28;20033;-74
2022/09/21 01:57:25;;;;;;;6.13;0.45;;;14.60;87.90;;;;;;5054231;28;20033;-73
2022/09/21 01:59:56;;;;;;;6.05;0.40;;;14.60;87.90;;;;;;5053867;28;20021;-74
2022/09/21 02:02:28;;;;;;;3.72;0.43;;;14.50;87.90;;;;;;5053924;28;20025;-74
2022/09/21 02:04:53;;;;;;;7.15;0.35;;;14.40;88.30;;;;;;5054103;28;20036;-74
2022/09/21 02:07:19;;;;;;;4.10;0.32;;;14.20;88.70;;;;;;5054251;28;20032;-74
2022/09/21 02:09:46;;;;;;;6.20;0.63;;;14.20;89.10;;;;;;5053730;28;20029;-74
2022/09/21 02:12:13;;;;;;;4.47;0.40;;;14.20;89.20;;;;;;5054217;28;20527;-73
2022/09/21 02:14:41;;;;;;;2.08;0.38;;;14.10;89.20;;;;;;5054349;28;20254;-73
2022/09/21 02:17:45;;;;;;;4.22;0.20;;;14.20;89.20;;;;;;5054068;28;20027;-74
2022/09/21 02:20:29;;;;;;;4.53;0.30;;;14.20;89.00;;;;;;5053838;28;20032;-73
2022/09/21 02:23:21;;;;;;;5.75;0.40;;;14.20;88.70;;;;;;5053970;28;20121;-74
2022/09/21 02:26:14;;;;;;;4.82;0.47;;;14.30;88.50;;;;;;5053666;28;20053;-74
2022/09/21 02:29:03;;;;;;;3.25;0.25;;;14.30;88.30;;;;;;5053672;28;20056;-74
2022/09/21 02:31:59;;;;;;;5.60;0.30;;;14.30;88.20;;;;;;5053722;28;20028;-74
2022/09/21 02:34:47;;;;;;;2.63;0.32;;;14.30;88.10;;;;;;5053324;28;20075;-74
2022/09/21 02:37:18;;;;;;;6.15;0.60;;;14.30;88.10;;;;;;5053699;28;20032;-74
2022/09/21 02:40:09;;;;;;;3.83;0.60;;;14.20;88.00;;;;;;5053725;28;20036;-74
2022/09/21 02:42:39;;;;;;;4.00;0.40;;;14.20;88.10;;;;;;5053619;28;20029;-74
2022/09/21 02:45:27;;;;;;;3.03;0.30;;;14.10;88.10;;;;;;5053072;28;20042;-74
2022/09/21 02:47:58;;;;;;;5.15;0.30;;;13.90;88.50;;;;;;5053248;28;20037;-74
2022/09/21 02:50:32;;;;;;;3.75;0.30;;;13.90;88.90;;;;;;5053271;28;20539;-74
2022/09/21 02:53:00;;;;;;;2.38;0.40;;;13.80;89.10;;;;;;5053211;28;20036;-74
2022/09/21 02:55:27;;;;;;;1.83;0.50;;;13.70;89.50;;;;;;5053288;28;20028;-74
2022/09/21 02:57:54;;;;;;;5.47;0.77;;;13.70;89.80;;;;;;5053185;28;20025;-74
2022/09/21 03:00:20;;;;;;;2.70;0.40;;;13.70;89.90;;;;;;5053336;28;20036;-74
2022/09/21 03:02:46;;;;;;;2.78;0.32;;;13.60;90.00;;;;;;5053095;28;20107;-74
2022/09/21 03:05:13;;;;;;;4.97;0.60;;;13.60;90.00;;;;;;5053018;28;20040;-74
2022/09/21 03:07:38;;;;;;;3.80;0.60;;;13.60;90.00;;;;;;5053248;28;20025;-74
2022/09/21 03:10:07;;;;;;;4.75;0.47;;;13.60;90.00;;;;;;5053490;28;20100;-74
2022/09/21 03:12:32;;;;;;;3.00;0.47;;;13.70;89.80;;;;;;5053145;28;20033;-75
2022/09/21 03:14:59;;;;;;;1.50;0.30;;;13.80;89.50;;;;;;5052761;28;20100;-74
2022/09/21 03:17:26;;;;;;;3.05;0.28;;;13.80;89.20;;;;;;5052932;28;20557;-74
2022/09/21 03:19:53;;;;;;;3.45;0.40;;;13.80;89.20;;;;;;5053266;28;20370;-74
2022/09/21 03:22:23;;;;;;;3.70;0.35;;;13.80;89.10;;;;;;5052852;28;20094;-74
2022/09/21 03:24:49;;;;;;;1.45;0.30;;;13.90;89.00;;;;;;5053177;28;20037;-74
2022/09/21 03:27:19;;;;;;;4.25;0.50;;;13.90;88.90;;;;;;5052684;28;20073;-74
2022/09/21 03:29:46;;;;;;;2.88;0.30;;;13.90;88.80;;;;;;5053087;28;20057;-74
2022/09/21 03:32:13;;;;;;;4.30;0.50;;;13.80;88.70;;;;;;5052665;28;20021;-74
2022/09/21 03:34:39;;;;;;;3.40;0.50;;;13.80;88.70;;;;;;5053255;28;20040;-74
2022/09/21 03:37:06;;;;;;;3.20;0.30;;;13.70;89.50;;;;;;5052940;28;20075;-74
2022/09/21 03:39:32;;;;;;;6.90;0.68;;;13.50;89.20;;;;;;5052861;28;20376;-74
2022/09/21 03:41:58;;;;;;;3.17;0.45;;;13.40;89.60;;;;;;5052546;28;20024;-74
2022/09/21 03:44:24;;;;;;;1.85;0.30;;;13.40;89.90;;;;;;5055166;28;20524;-74
2022/09/21 03:46:50;;;;;;;3.72;0.40;;;13.40;90.00;;;;;;5056603;28;20525;-74
2022/09/21 03:49:16;;;;;;;7.50;0.40;;;13.40;90.00;;;;;;5056490;28;20025;-74
2022/09/21 03:51:42;;;;;;;3.17;0.30;;;13.40;90.00;;;;;;5056355;28;20017;-74
2022/09/21 03:54:08;;;;;;;2.40;0.20;;;13.40;89.90;;;;;;5056649;28;20025;-74
2022/09/21 03:56:33;;;;;;;2.92;0.50;;;13.40;89.90;;;;;;5056733;28;20025;-74
2022/09/21 03:58:59;;;;;;;1.58;0.20;;;13.40;89.90;;;;;;5056421;28;20108;-74
2022/09/21 04:01:25;;;;;;;4.28;0.20;;;13.40;89.90;;;;;;5056641;28;20099;-74
2022/09/21 04:03:51;;;;;;;2.83;0.30;;;13.40;89.70;;;;;;5056033;28;20048;-74
2022/09/21 04:06:17;;;;;;;4.93;0.40;;;13.50;89.70;;;;;;5056287;28;20029;-74
2022/09/21 04:08:43;;;;;;;3.53;0.40;;;13.50;89.50;;;;;;5056290;28;20028;-74
2022/09/21 04:11:13;;;;;;;2.60;0.30;;;13.50;89.40;;;;;;5056176;28;20032;-74
2022/09/21 04:13:50;;;;;;;4.00;0.20;;;13.60;89.40;;;;;;5056469;28;20052;-74
2022/09/21 04:16:16;;;;;;;4.60;0.50;;;13.60;89.30;;;;;;5057833;28;20107;-74
2022/09/21 04:18:42;;;;;;;4.47;0.40;;;13.70;89.20;;;;;;5056247;28;20017;-74
2022/09/21 04:21:08;;;;;;;3.97;0.40;;;13.70;89.10;;;;;;5055889;28;20047;-74
2022/09/21 04:23:34;;;;;;;2.97;0.20;;;13.60;89.20;;;;;;5055661;28;20032;-74
2022/09/21 04:26:01;;;;;;;3.55;0.50;;;13.50;89.60;;;;;;5055884;28;20041;-73
2022/09/21 04:28:27;;;;;;;4.80;0.30;;;13.50;89.80;;;;;;5056037;28;20053;-76
2022/09/21 04:30:54;;;;;;;0.63;0.20;;;13.40;89.70;;;;;;5055908;28;20108;-76
2022/09/21 04:33:21;;;;;;;2.38;0.20;;;13.50;90.10;;;;;;5055644;28;20082;-76
2022/09/21 04:35:47;;;;;;;4.40;0.55;;;13.50;90.30;;;;;;5055882;28;20079;-76
2022/09/21 04:38:12;;;;;;;4.93;0.38;;;13.60;90.30;;;;;;5055710;28;20017;-77
2022/09/21 04:40:38;;;;;;;2.20;0.30;;;13.60;90.20;;;;;;5055631;28;20036;-77
2022/09/21 04:43:06;;;;;;;3.40;0.30;;;13.70;90.10;;;;;;5055944;28;20021;-75
2022/09/21 04:45:33;;;;;;;1.85;0.30;;;13.70;90.00;;;;;;5055332;28;20120;-75
2022/09/21 04:47:58;;;;;;;3.95;0.43;;;13.80;90.00;;;;;;5055588;28;20020;-75
2022/09/21 04:50:24;;;;;;;4.07;0.50;;;13.80;89.60;;;;;;5055734;28;20477;-75
2022/09/21 04:52:50;;;;;;;2.08;0.20;;;13.90;89.50;;;;;;5055220;28;20021;-75
2022/09/21 04:55:16;;;;;;;1.80;0.20;;;13.80;89.40;;;;;;5052735;28;20373;-75
2022/09/21 04:57:43;;;;;;;2.88;0.52;;;13.90;89.60;;;;;;5055477;28;20025;-75
2022/09/21 05:00:09;;;;;;;2.05;0.20;;;13.90;89.50;;;;;;5055525;28;20056;-75
2022/09/21 05:02:35;;;;;;;2.00;0.20;;;14.00;89.50;;;;;;5055558;28;20025;-75
2022/09/21 05:05:00;;;;;;;1.80;0.10;;;14.00;89.40;;;;;;5055328;28;20037;-75
2022/09/21 05:07:26;;;;;;;2.83;0.22;;;14.00;89.80;;;;;;5054826;28;20024;-75
2022/09/21 05:10:24;;;;;;;2.50;0.60;;;14.10;90.00;;;;;;5055459;28;20053;-75
2022/09/21 05:12:43;;;;;;;3.20;1.13;;;14.00;89.60;;;;;;5052083;28;20056;-75
2022/09/21 05:15:12;;;;;;;1.60;0.40;;;14.00;88.70;;;;;;5055367;28;20057;-75
2022/09/21 05:17:39;;;;;;;3.22;0.40;;;13.90;88.80;;;;;;5055699;28;20491;-75
2022/09/21 05:20:06;;;;;;;2.47;0.20;;;13.90;88.70;;;;;;5054537;28;20029;-75
2022/09/21 05:22:31;;;;;;;1.38;0.30;;;13.90;88.70;;;;;;5055064;28;20100;-75
2022/09/21 05:24:57;;;;;;;1.95;0.40;;;13.90;88.80;;;;;;5055007;28;20108;-75
2022/09/21 05:27:23;;;;;;;3.63;0.38;;;14.00;89.30;;;;;;5054752;28;20035;-75
2022/09/21 05:29:48;;;;;;;1.85;0.60;;;14.00;89.50;;;;;;5054833;28;20540;-75
2022/09/21 05:32:35;;;;;;;3.40;0.50;;;14.00;89.30;;;;;;5054566;28;20472;-75
2022/09/21 05:35:12;;;;;;;4.22;0.55;;;13.90;89.30;;;;;;5050247;28;20029;-76
2022/09/21 05:37:52;;;;;;;2.70;0.60;;;13.90;89.30;;;;;;5054717;28;20028;-75
2022/09/21 05:40:19;;;;;;;2.58;0.35;;;13.90;89.20;;;;;;5054914;28;20056;-75
2022/09/21 05:42:45;;;;;;;2.00;0.40;;;13.90;89.50;;;;;;5054480;28;20025;-75
2022/09/21 05:45:15;;;;;;;1.75;0.30;;;13.90;89.40;;;;;;5054608;28;20041;-75
2022/09/21 05:48:00;;;;;;;1.73;0.30;;;13.90;89.40;;;;;;5054567;28;20035;-75
2022/09/21 05:50:47;;;;;;;2.85;1.08;;;14.00;89.50;;;;;;5054359;28;20056;-75
2022/09/21 05:53:22;;;;;;;3.53;1.00;;;13.90;89.60;;;;;;5054299;28;20025;-75
2022/09/21 05:55:55;;;;;;;7.30;1.30;;;13.80;90.00;;;;;;5054139;28;20021;-75
2022/09/21 05:58:36;;;;;;;7.13;1.30;;;13.70;90.20;;;;;;5053993;28;20060;-75
2022/09/21 06:01:33;;;;;;;3.83;1.20;;;13.60;90.50;;;;;;5054105;28;20029;-75
2022/09/21 06:04:00;;;;;;;4.88;1.13;;;13.50;90.70;;;;;;5054112;28;20031;-75
2022/09/21 06:06:26;;;;;;;5.53;1.33;;;13.50;90.70;;;;;;5053846;28;20143;-75
2022/09/21 06:08:51;;;;;;;5.75;1.30;;;13.50;90.80;;;;;;5053781;28;20021;-75
2022/09/21 06:11:17;;;;;;;6.72;1.25;;;13.50;90.80;;;;;;5053531;28;20072;-75
2022/09/21 06:13:42;;;;;;;3.08;1.00;;;13.50;90.90;;;;;;5053964;28;20032;-75
2022/09/21 06:16:08;;;;;;;6.18;1.73;;;13.50;91.00;;;;;;5054141;28;20082;-75
2022/09/21 06:18:38;;;;;;;7.45;1.42;;;13.50;91.10;;;;;;5054781;28;20025;-75
2022/09/21 06:21:05;;;;;;;2.42;1.20;;;13.40;91.20;;;;;;5053533;28;20441;-75
2022/09/21 06:23:30;;;;;;;4.15;1.20;;;13.40;91.30;;;;;;5053068;28;20037;-76
2022/09/21 06:25:56;;;;;;;3.90;0.82;;;13.40;91.40;;;;;;5053704;28;20521;-76
2022/09/21 06:28:22;;;;;;;5.30;1.27;;;13.50;91.50;;;;;;5053336;28;20396;-76
2022/09/21 06:30:51;;;;;;;3.08;1.20;;;13.50;91.50;;;;;;5053054;28;20021;-76
2022/09/21 06:33:20;;;;;;;5.32;1.88;;;13.50;91.50;;;;;;5053700;28;20033;-76
2022/09/21 06:35:51;;;;;;;3.50;1.20;;;13.50;91.70;;;;;;5053558;28;20123;-76
2022/09/21 06:38:16;;;;;;;3.90;1.50;;;13.30;91.90;;;;;;5053682;28;20040;-76
2022/09/21 06:40:42;;;;;;;4.28;1.15;;;13.40;91.90;;;;;;5053503;28;20017;-75
2022/09/21 06:43:07;;;;;;;2.47;1.10;;;13.50;91.80;;;;;;5053324;28;20096;-75
2022/09/21 06:45:33;;;;;;;6.25;1.83;;;13.60;91.80;;;;;;5052963;28;20485;-76
2022/09/21 06:47:59;;;;;;;6.65;2.00;;;13.70;91.90;;;;;;5053207;28;20388;-76
2022/09/21 06:50:24;;;;;;;4.03;1.80;;;13.60;91.90;;;;;;5053228;28;20028;-76
2022/09/21 06:52:50;;;;;;;4.70;1.70;;;13.50;91.90;;;;;;5053337;28;20052;-76
2022/09/21 06:55:15;;;;;;;7.32;2.40;;;13.50;92.00;;;;;;5053036;28;20078;-76
2022/09/21 06:57:42;;;;;;;8.18;1.40;;;13.40;92.10;;;;;;5052899;28;20025;-75
2022/09/21 07:00:10;;;;;;;5.43;1.55;;;13.50;92.20;;;;;;5053236;28;20029;-76
2022/09/21 07:02:35;;;;;;;4.57;1.23;;;13.50;92.20;;;;;;5053426;28;20032;-75
2022/09/21 07:05:01;;;;;;;6.22;1.77;;;13.70;92.10;;;;;;5052956;28;20033;-76
2022/09/21 07:07:31;;;;;;;10.13;2.25;;;13.80;92.00;;;;;;5053311;28;20025;-76
2022/09/21 07:09:59;;;;;;;7.53;2.40;;;13.90;92.00;;;;;;5053304;28;20017;-76
2022/09/21 07:12:27;;;;;;;8.60;1.75;;;13.90;92.10;;;;;;5052851;28;20029;-75
2022/09/21 07:14:52;;;;;;;4.38;2.20;;;14.00;92.20;;;;;;5052941;28;20049;-75
2022/09/21 07:17:18;;;;;;;8.45;2.50;;;14.10;92.50;;;;;;5052766;28;20060;-75
2022/09/21 07:19:43;;;;;;;4.13;2.70;;;14.10;92.90;;;;;;5056567;28;20017;-75
2022/09/21 07:22:09;;;;;;;5.63;2.63;;;14.10;93.20;;;;;;5057035;28;20032;-75
2022/09/21 07:24:34;;;;;;;7.70;3.20;;;14.10;93.30;;;;;;5056595;28;20044;-75
2022/09/21 07:27:00;;;;;;;7.75;3.10;;;14.10;93.40;;;;;;5056612;28;20021;-74
2022/09/21 07:29:26;;;;;;;8.55;3.60;;;14.20;93.60;;;;;;5056880;28;20044;-75
2022/09/21 07:31:51;;;;;;;13.07;3.60;;;14.30;93.70;;;;;;5056903;28;20025;-75
2022/09/21 07:34:17;;;;;;;10.68;4.30;;;14.40;93.60;;;;;;5056811;28;20024;-75
2022/09/21 07:36:42;;;;;;;8.85;2.97;;;14.40;93.40;;;;;;5056652;28;20029;-75
2022/09/21 07:39:09;;;;;;;6.60;2.35;;;14.40;93.40;;;;;;5056636;28;20357;-75
2022/09/21 07:41:35;;;;;;;9.50;2.97;;;14.40;93.10;;;;;;5056296;28;20473;-75
2022/09/21 07:44:02;;;;;;;15.20;3.80;;;14.40;92.90;;;;;;5056726;28;20029;-75
2022/09/21 07:46:28;;;;;;;10.52;2.40;;;14.40;92.90;;;;;;5056770;28;20033;-75
2022/09/21 07:48:54;;;;;;;10.10;2.53;;;14.40;93.10;;;;;;5056666;28;20048;-75
2022/09/21 07:51:21;;;;;;;11.02;3.42;;;14.50;92.70;;;;;;5055914;28;20174;-75
2022/09/21 07:53:47;;;;;;;8.93;2.50;;;14.50;92.70;;;;;;5056575;28;20029;-75
2022/09/21 07:56:15;;;;;;;8.02;2.63;;;14.50;93.00;;;;;;5056317;28;20104;-75
2022/09/21 08:01:26;;;;;;;16.45;3.45;;;14.70;93.00;;;;;;5056446;28;20059;-75
2022/09/21 08:03:53;;;;;;;10.23;3.20;;;14.80;92.80;;;;;;5056535;28;20021;-75
2022/09/21 08:06:20;;;;;;;9.93;2.83;;;14.90;92.60;;;;;;5055996;28;20550;-75
2022/09/21 08:08:47;;;;;;;8.55;3.08;;;15.00;92.30;;;;;;5056015;28;20029;-75
2022/09/21 08:11:14;;;;;;;13.48;3.28;;;15.00;92.20;;;;;;5056557;28;20094;-75
2022/09/21 08:13:43;;;;;;;12.35;3.33;;;15.10;92.20;;;;;;5056329;28;20021;-75
2022/09/21 08:16:09;;;;;;;8.35;3.15;;;15.30;91.80;;;;;;5056256;28;20049;-75
2022/09/21 08:18:38;;;;;;;7.95;3.35;;;15.40;91.60;;;;;;5056223;28;20515;-75
2022/09/21 08:21:04;;;;;;;9.82;3.30;;;15.50;91.20;;;;;;5056762;28;20122;-74
2022/09/21 08:23:30;;;;;;;11.13;3.00;;;15.50;90.80;;;;;;5056329;28;20025;-75
2022/09/21 08:26:00;;;;;;;6.05;2.22;;;15.60;91.00;;;;;;5055928;28;20037;-75
2022/09/21 08:28:27;;;;;;;9.80;2.80;;;15.70;90.80;;;;;;5055588;28;20045;-75
2022/09/21 08:30:53;;;;;;;7.88;2.33;;;15.80;90.30;;;;;;5055458;28;20469;-75
2022/09/21 08:33:19;;;;;;;7.00;1.85;;;15.90;90.40;;;;;;5055377;28;20042;-75
2022/09/21 08:35:55;;;;;;;7.13;1.88;;;16.10;90.20;;;;;;5055559;28;20049;-75
2022/09/21 08:38:21;;;;;;;4.72;1.48;;;16.20;89.90;;;;;;5055511;28;20472;-75
2022/09/21 08:40:48;;;;;;;8.80;1.60;;;16.20;89.20;;;;;;5055569;28;20033;-75
2022/09/21 08:43:39;;;;;;;8.55;1.80;;;16.30;88.50;;;;;;5055517;28;20025;-74
2022/09/21 08:46:09;;;;;;;5.05;0.90;;;16.40;87.00;;;;;;5055060;28;20079;-75
2022/09/21 08:48:39;;;;;;;4.53;0.90;;;16.60;86.30;;;;;;5055547;28;20025;-75
2022/09/21 08:51:09;;;;;;;5.38;1.20;;;16.60;85.60;;;;;;5055531;28;20028;-75
2022/09/21 08:53:45;;;;;;;5.95;1.40;;;16.70;86.50;;;;;;5055861;28;20516;-74
2022/09/21 08:56:14;;;;;;;5.57;0.60;;;16.80;86.10;;;;;;5055575;28;20349;-75
2022/09/21 08:58:41;;;;;;;4.70;0.73;;;16.90;85.40;;;;;;5054942;28;20049;-74
2022/09/21 09:01:18;;;;;;;8.18;0.80;;;17.00;84.40;;;;;;5055440;28;20133;-75
2022/09/21 09:03:53;;;;;;;8.18;0.60;;;17.20;84.20;;;;;;5055269;28;20025;-75
2022/09/21 09:06:40;;;;;;;5.43;0.82;;;17.20;84.50;;;;;;5055227;28;20037;-76
2022/09/21 09:09:43;;;;;;;6.90;1.02;;;17.30;83.50;;;;;;5054666;28;20020;-76
2022/09/21 09:12:25;;;;;;;4.40;1.00;;;17.40;83.40;;;;;;5054492;28;20033;-76
2022/09/21 09:15:14;;;;;;;6.07;1.15;;;17.60;82.90;;;;;;5055122;28;20039;-76
2022/09/21 09:17:43;;;;;;;6.07;0.90;;;17.70;83.20;;;;;;5054989;28;20020;-76
2022/09/21 09:20:08;;;;;;;6.32;0.90;;;17.80;84.00;;;;;;5055283;28;20071;-76
2022/09/21 09:22:44;;;;;;;6.05;0.60;;;17.90;82.40;;;;;;5055812;28;20033;-76
2022/09/21 09:25:23;;;;;;;6.25;0.80;;;18.00;81.90;;;;;;5055321;28;20508;-76
2022/09/21 09:27:56;;;;;;;4.25;0.70;;;18.10;80.90;;;;;;5054633;28;20128;-76
2022/09/21 09:30:29;;;;;;;5.75;1.10;;;18.20;80.30;;;;;;5054658;28;20567;-76
2022/09/21 09:33:03;;;;;;;4.13;0.93;;;18.20;79.30;;;;;;5054926;28;20017;-75
2022/09/21 09:35:43;;;;;;;5.55;1.23;;;18.30;79.60;;;;;;5054550;28;20036;-76
2022/09/21 09:38:19;;;;;;;6.40;1.15;;;18.40;79.30;;;;;;5054741;28;20021;-76
2022/09/21 09:41:07;;;;;;;8.15;1.40;;;18.60;79.10;;;;;;5054311;28;20033;-76
2022/09/21 09:44:00;;;;;;;7.25;0.98;;;18.70;78.40;;;;;;5047838;28;20036;-76
2022/09/21 09:46:28;;;;;;;6.07;0.80;;;18.80;78.20;;;;;;5054644;28;20103;-76
2022/09/21 09:49:07;;;;;;;5.35;1.00;;;18.90;78.00;;;;;;5054283;28;20037;-76
2022/09/21 09:51:35;;;;;;;6.60;1.63;;;19.00;77.00;;;;;;5054235;28;20488;-76
2022/09/21 09:54:02;;;;;;;6.63;1.15;;;19.00;75.90;;;;;;5054081;28;20473;-76
2022/09/21 09:56:30;;;;;;;3.70;0.80;;;19.00;76.70;;;;;;5054362;28;20028;-76
2022/09/21 09:59:05;;;;;;;7.70;1.40;;;19.10;77.50;;;;;;5054230;28;20056;-76
2022/09/21 10:01:40;;;;;;;5.72;1.00;;;19.20;77.50;;;;;;5054373;28;20048;-76
2022/09/21 10:04:11;;;;;;;6.85;1.17;;;19.20;76.50;;;;;;5054045;28;20491;-76
2022/09/21 10:06:37;;;;;;;3.92;0.90;;;19.30;76.00;;;;;;5053701;28;20389;-76
2022/09/21 10:09:32;;;;;;;6.82;1.00;;;19.50;74.10;;;;;;5053974;28;20025;-76
2022/09/21 10:12:23;;;;;;;3.40;0.82;;;19.50;75.70;;;;;;5053725;28;20029;-76
2022/09/21 10:14:52;;;;;;;7.53;1.40;;;19.50;74.20;;;;;;5053989;28;20025;-76
2022/09/21 10:17:18;;;;;;;6.00;1.13;;;19.60;73.80;;;;;;5053250;28;20381;-76
2022/09/21 10:19:45;;;;;;;9.63;1.73;;;19.60;73.60;;;;;;5053451;28;20025;-75
2022/09/21 10:22:18;;;;;;;2.72;0.85;;;19.80;73.50;;;;;;5053526;28;20037;-75
2022/09/21 10:24:53;;;;;;;4.15;0.90;;;19.90;72.90;;;;;;5054320;28;20047;-75
2022/09/21 10:27:33;;;;;;;4.43;0.68;;;20.00;71.40;;;;;;5053204;28;20033;-74
2022/09/21 10:29:59;;;;;;;7.20;0.82;;;20.10;71.50;;;;;;5052843;28;20112;-76
2022/09/21 10:32:26;;;;;;;5.72;0.75;;;20.20;69.80;;;;;;5052426;28;20064;-75
2022/09/21 10:35:04;;;;;;;5.45;1.05;;;20.20;69.00;;;;;;5052895;28;20035;-75
2022/09/21 10:37:32;;;;;;;4.85;0.40;;;20.30;67.70;;;;;;5052851;28;20020;-74
2022/09/21 10:39:58;;;;;;;6.78;0.70;;;20.30;69.30;;;;;;5052451;28;20095;-74
2022/09/21 10:42:24;;;;;;;3.58;0.43;;;20.40;67.30;;;;;;5052530;28;20016;-75
2022/09/21 10:44:53;;;;;;;5.13;0.63;;;20.40;66.40;;;;;;5051885;28;20055;-75
2022/09/21 10:47:31;;;;;;;4.55;0.80;;;20.40;65.90;;;;;;5052385;28;20094;-75
2022/09/21 10:49:59;;;;;;;4.28;0.60;;;20.40;66.00;;;;;;5052551;28;20111;-74
2022/09/21 10:52:38;;;;;;;4.80;0.50;;;20.60;66.20;;;;;;5052188;28;20017;-75
2022/09/21 10:55:04;;;;;;;6.00;0.45;;;20.80;67.10;;;;;;5052522;28;20025;-75
2022/09/21 10:57:32;;;;;;;4.45;0.47;;;20.90;67.80;;;;;;5052561;28;20071;-75
2022/09/21 11:00:22;;;;;;;4.80;0.50;;;21.00;67.10;;;;;;5052317;28;20036;-74
2022/09/21 11:02:50;;;;;;;2.42;0.30;;;21.10;65.00;;;;;;5052217;28;20028;-75
2022/09/21 11:05:37;;;;;;;3.67;0.25;;;21.20;65.70;;;;;;5052321;28;20037;-74
2022/09/21 11:08:17;;;;;;;2.78;0.30;;;21.30;64.20;;;;;;5052209;28;20040;-75
2022/09/21 11:11:00;;;;;;;3.53;0.20;;;21.40;62.70;;;;;;5052411;28;20101;-75
2022/09/21 11:13:40;;;;;;;2.55;0.63;;;21.50;63.10;;;;;;5052048;28;20021;-75
2022/09/21 11:16:23;;;;;;;2.63;0.13;;;21.70;62.40;;;;;;5051967;28;20079;-75
2022/09/21 11:18:57;;;;;;;2.50;0.22;;;21.80;61.50;;;;;;5052344;28;20036;-75
2022/09/21 11:21:58;;;;;;;3.05;0.50;;;21.80;61.50;;;;;;5052455;28;20017;-75
2022/09/21 11:24:55;;;;;;;3.03;0.20;;;21.80;60.50;;;;;;5042002;28;20122;-75
2022/09/21 11:27:48;;;;;;;3.65;0.30;;;22.00;58.90;;;;;;5013349;28;1112102;-75
2022/09/21 11:30:17;;;;;;;2.58;0.20;;;22.10;57.50;;;;;;5052805;28;20021;-75
2022/09/21 11:32:59;;;;;;;4.45;0.47;;;21.70;58.50;;;;;;5052792;28;20031;-75
2022/09/21 11:35:51;;;;;;;1.38;0.10;;;21.40;58.70;;;;;;5052950;28;20108;-75
2022/09/21 11:38:46;;;;;;;0.95;0.20;;;21.10;60.00;;;;;;5052842;28;20029;-75
2022/09/21 11:41:30;;;;;;;3.70;0.40;;;21.10;59.80;;;;;;5049521;28;20036;-75
2022/09/21 11:44:19;;;;;;;2.60;0.38;;;21.00;59.70;;;;;;5052727;28;20025;-75
2022/09/21 11:46:50;;;;;;;2.92;0.20;;;20.80;61.20;;;;;;5052914;28;20029;-75
2022/09/21 11:49:37;;;;;;;2.03;0.40;;;20.50;62.00;;;;;;5052092;28;20091;-75
2022/09/21 11:52:21;;;;;;;2.08;0.20;;;20.50;61.90;;;;;;5052637;28;20498;-75
2022/09/21 11:54:57;;;;;;;4.65;0.20;;;20.50;62.40;;;;;;5052799;28;20112;-75
2022/09/21 11:57:28;;;;;;;3.53;0.73;;;20.50;62.60;;;;;;5051997;28;20502;-75
2022/09/21 12:00:17;;;;;;;2.07;0.20;;;20.40;63.20;;;;;;5051415;28;20128;-75
2022/09/21 12:02:42;;;;;;;2.88;0.63;;;20.40;63.80;;;;;;5051707;28;20075;-75
2022/09/21 12:05:19;;;;;;;1.35;0.20;;;20.40;63.70;;;;;;5052347;28;20104;-75
2022/09/21 12:08:10;;;;;;;4.55;0.50;;;20.30;63.40;;;;;;5055203;28;20025;-74
2022/09/21 12:10:42;;;;;;;3.45;0.20;;;20.30;63.50;;;;;;5055714;28;20025;-75
2022/09/21 12:13:50;;;;;;;4.32;0.65;;;20.30;63.60;;;;;;5056177;28;20021;-75
2022/09/21 12:17:07;;;;;;;2.95;0.28;;;20.40;64.00;;;;;;5053252;28;20033;-76
2022/09/21 12:19:47;;;;;;;5.05;0.75;;;20.50;64.80;;;;;;5046613;28;20033;-76
2022/09/21 12:22:26;;;;;;;3.95;0.50;;;20.60;63.80;;;;;;5056178;28;20029;-76
2022/09/21 12:25:12;;;;;;;5.90;0.93;;;20.80;63.20;;;;;;5055713;28;20091;-76
2022/09/21 12:28:13;;;;;;;3.92;0.65;;;20.80;64.70;;;;;;5051519;28;20061;-74
2022/09/21 12:30:42;;;;;;;3.97;0.50;;;21.00;63.80;;;;;;5053964;28;20444;-75
2022/09/21 12:33:25;;;;;;;2.78;0.30;;;20.90;62.50;;;;;;5055612;28;20048;-75
2022/09/21 12:36:02;;;;;;;4.28;0.45;;;20.50;62.70;;;;;;5055815;28;20083;-75
2022/09/21 12:38:39;;;;;;;4.15;0.30;;;20.20;63.50;;;;;;5055707;28;20037;-76
2022/09/21 12:41:05;;;;;;;3.30;0.20;;;20.00;63.70;;;;;;5055606;28;20432;-76
2022/09/21 12:43:47;;;;;;;2.40;0.20;;;20.00;65.10;;;;;;5055801;28;20096;-74
2022/09/21 12:46:20;;;;;;;4.78;0.25;;;19.90;65.10;;;;;;5055813;28;20037;-75
2022/09/21 12:48:46;;;;;;;3.45;0.20;;;19.90;65.20;;;;;;5055485;28;20067;-75
2022/09/21 12:51:15;;;;;;;1.42;0.20;;;20.00;65.60;;;;;;5055587;28;20025;-75
2022/09/21 12:53:49;;;;;;;2.95;0.40;;;20.10;65.60;;;;;;5055409;28;20021;-75
2022/09/21 12:56:36;;;;;;;3.20;0.25;;;20.10;63.70;;;;;;5055332;28;20021;-75
2022/09/21 12:59:29;;;;;;;4.60;0.93;;;20.00;63.70;;;;;;5055177;28;20060;-75
2022/09/21 13:02:10;;;;;;;5.60;0.50;;;20.10;64.10;;;;;;5055407;28;20047;-75
2022/09/21 13:04:42;;;;;;;3.35;0.32;;;20.10;64.80;;;;;;5055348;28;20104;-75
2022/09/21 13:07:32;;;;;;;3.10;0.40;;;20.30;65.30;;;;;;5055258;28;20021;-75
2022/09/21 13:10:05;;;;;;;3.63;0.20;;;20.30;63.50;;;;;;5055392;28;20029;-76
2022/09/21 13:12:39;;;;;;;2.10;0.40;;;20.40;63.40;;;;;;5054334;28;20477;-75
2022/09/21 13:15:15;;;;;;;3.92;0.30;;;20.50;61.60;;;;;;5054530;28;20036;-75
2022/09/21 13:17:41;;;;;;;5.35;0.20;;;20.50;60.70;;;;;;5054222;28;20036;-75
2022/09/21 13:20:19;;;;;;;2.45;0.20;;;20.50;60.20;;;;;;5054820;28;20369;-75